Карточка аэропорта UAKK

Внимание!
Информация на этой странице в стадии наполнения.
Если вы не увидели какой-то информации, или заметили неточность - пожалуйста сообщите нам!
Спасибо!
Команда RU-STAFF
Название аэропортаКараганда
Название аэропорта (англ.)Karaganda
Превышение1768 ft. (538.9 m.)
Координаты49°40.302', 73°20.118'
Высота перехода10000
Эшелон переходаby ATC
Коды ответчика0630-0637, 7220-7227
Зона ОрВДАстана РПИ (UACN)
Данные METARUAKK 282200Z 28002MPS 9000 BKN005 BKN023 M06/M07 Q1032 NOSIG RMK QBB160 QFE726/0969
Проноз погоды (TAF)UAKK 281702Z 2818/2918 VRB02MPS 1000 BR BKN006 BKN011 TXM04/2910Z TNM16/2901Z TEMPO 2818/2905 0200 -SN FZFG VV002 FM290600 16005MPS 9999 BKN015 BKN040 TEMPO 2915/2918 3100 BR SCT007
NOTAMshow/hide NOTAM
AWOS   TABLE

Информация о ВПП

ВПП Длина ВПП (м.) Покрытие Курс ВПП Частота ILS
233601Железобетон230111.7
053601Железобетон50109.9

Диспетчерские позиции




Спутниковое изображение